Аэропорт: Остафьево. Москва

ICAO: UUMO

METAR:
2021-04-21 19:00:00
UUMO 211900Z VRB01MPS CAVOK 05/03 Q1010 R25/090060 NOSIG RMK QFE742/0990
METAR:
Информация по данной станции не доступна